Terminal Aerodrome Forecast
Issued by NWS

Home | Current Version | Previous Version | Graphics & Text | Print | Product List | Glossary On
Versions: 1 2 3 4 5 6 7 8 9 10 11 12 13 14 15 16 17 18 19 20 21
488
FTUS43 KFGF 040536
TAFBJI
TAF
KBJI 040536Z 0406/0506 22004KT 5SM -SN OVC020
     FM040800 24004KT P6SM OVC025
     FM041100 27005KT P6SM OVC015
     FM042100 30008KT P6SM BKN035
     FM050500 24004KT P6SM SCT070=

USA.gov is the U.S. government's official web portal to all federal, state and local government web resources and services.